Time;durP1;ratioP1;P1;durP2;ratioP2;P2;SDS_P1;SDS_P2;PMS_P1;PMS_P2;Temp;Humidity;BMP_temperature;BMP_pressure;BME280_temperature;BME280_humidity;BME280_pressure;Samples;Min_cycle;Max_cycle;Signal;HPM_P1;HPM_P2
2021/04/23 00:01:44;;;;;;;15.65;4.68;;;5.80;75.00;;;;;;5073334;28;20020;-72
2021/04/23 00:04:11;;;;;;;15.75;5.03;;;5.70;75.00;;;;;;5073071;28;20024;-72
2021/04/23 00:06:40;;;;;;;22.27;6.72;;;5.70;75.20;;;;;;5073276;28;20024;-73
2021/04/23 00:09:13;;;;;;;17.63;5.70;;;5.70;75.30;;;;;;5072890;28;20151;-72
2021/04/23 00:11:45;;;;;;;17.23;5.38;;;5.60;75.40;;;;;;5074507;28;20095;-72
2021/04/23 00:14:13;;;;;;;15.25;4.90;;;5.60;75.50;;;;;;5074105;28;20028;-71
2021/04/23 00:16:39;;;;;;;13.35;5.70;;;5.60;75.70;;;;;;5073054;28;20052;-72
2021/04/23 00:19:07;;;;;;;15.32;4.90;;;5.50;75.60;;;;;;5073606;28;20021;-73
2021/04/23 00:21:33;;;;;;;14.43;5.70;;;5.50;75.80;;;;;;5074239;28;20021;-73
2021/04/23 00:23:59;;;;;;;12.75;4.75;;;5.50;76.10;;;;;;5072577;28;20089;-72
2021/04/23 00:26:25;;;;;;;14.52;5.05;;;5.50;76.10;;;;;;5072824;28;20023;-73
2021/04/23 00:28:50;;;;;;;16.33;5.53;;;5.50;76.40;;;;;;5072227;28;20506;-71
2021/04/23 00:31:16;;;;;;;18.10;5.63;;;5.50;76.60;;;;;;5072638;28;20111;-72
2021/04/23 00:33:42;;;;;;;18.98;5.15;;;5.40;76.60;;;;;;5074205;28;20017;-71
2021/04/23 00:36:08;;;;;;;12.52;4.95;;;5.40;76.70;;;;;;5072539;28;20020;-71
2021/04/23 00:38:34;;;;;;;17.85;6.43;;;5.40;76.80;;;;;;5073846;28;20016;-72
2021/04/23 00:41:03;;;;;;;18.40;5.97;;;5.40;76.80;;;;;;5072453;28;20115;-71
2021/04/23 00:43:35;;;;;;;16.30;4.57;;;5.40;76.90;;;;;;5072496;28;20030;-73
2021/04/23 00:46:02;;;;;;;14.30;5.57;;;5.30;77.00;;;;;;5073250;28;20025;-73
2021/04/23 00:48:30;;;;;;;18.92;6.55;;;5.30;77.20;;;;;;5073391;28;20055;-72
2021/04/23 00:51:07;;;;;;;21.25;6.95;;;5.30;77.40;;;;;;5072105;28;20020;-73
2021/04/23 00:53:37;;;;;;;14.60;5.25;;;5.20;77.20;;;;;;5072064;28;20064;-72
2021/04/23 00:56:07;;;;;;;16.67;5.37;;;5.20;77.40;;;;;;5072025;28;20038;-72
2021/04/23 00:58:34;;;;;;;18.23;6.10;;;5.20;77.40;;;;;;5071839;28;20271;-72
2021/04/23 01:01:11;;;;;;;14.20;5.10;;;5.20;77.60;;;;;;5073132;28;20450;-72
2021/04/23 01:03:37;;;;;;;14.60;5.32;;;5.10;77.70;;;;;;5073434;28;20039;-72
2021/04/23 01:06:15;;;;;;;21.83;4.93;;;5.10;77.90;;;;;;5073141;28;20016;-72
2021/04/23 01:08:45;;;;;;;16.58;5.38;;;5.10;78.10;;;;;;5073238;28;20051;-72
2021/04/23 01:11:13;;;;;;;17.42;6.38;;;5.10;78.20;;;;;;5073171;28;20020;-72
2021/04/23 01:13:39;;;;;;;14.85;4.93;;;5.10;78.50;;;;;;5072862;28;20475;-72
2021/04/23 01:16:10;;;;;;;11.05;5.75;;;5.10;78.40;;;;;;5072906;28;20020;-72
2021/04/23 01:18:37;;;;;;;22.77;7.13;;;5.10;78.60;;;;;;5073016;28;20061;-73
2021/04/23 01:21:04;;;;;;;18.08;6.22;;;5.10;78.70;;;;;;5072542;28;20017;-73
2021/04/23 01:23:30;;;;;;;13.52;5.30;;;5.10;78.60;;;;;;5071380;28;20115;-73
2021/04/23 01:25:56;;;;;;;15.40;5.15;;;5.10;79.00;;;;;;5071114;28;20069;-73
2021/04/23 01:28:21;;;;;;;23.48;5.57;;;5.10;79.00;;;;;;5071382;28;20465;-72
2021/04/23 01:30:47;;;;;;;12.20;5.35;;;5.10;79.00;;;;;;5072093;28;20102;-73
2021/04/23 01:33:13;;;;;;;20.40;5.65;;;5.10;79.00;;;;;;5072126;28;20372;-71
2021/04/23 01:35:38;;;;;;;24.75;5.40;;;5.10;79.00;;;;;;5071428;28;20084;-72
2021/04/23 01:38:04;;;;;;;16.70;5.82;;;5.00;79.00;;;;;;5071254;28;20578;-72
2021/04/23 01:40:30;;;;;;;19.30;4.80;;;5.00;79.10;;;;;;5072694;28;20071;-72
2021/04/23 01:42:55;;;;;;;20.67;5.70;;;5.00;79.30;;;;;;5072236;28;20361;-72
2021/04/23 01:45:21;;;;;;;19.95;5.43;;;5.00;79.60;;;;;;5071251;28;20013;-72
2021/04/23 01:47:46;;;;;;;16.45;6.20;;;5.00;79.60;;;;;;5072583;28;20456;-72
2021/04/23 01:50:17;;;;;;;16.95;5.03;;;5.00;79.80;;;;;;5072408;28;20028;-72
2021/04/23 01:52:43;;;;;;;13.38;4.53;;;4.90;79.70;;;;;;5071165;28;20364;-72
2021/04/23 01:55:11;;;;;;;16.27;4.65;;;4.90;79.60;;;;;;5070962;28;20154;-72
2021/04/23 01:57:36;;;;;;;17.65;6.70;;;4.90;79.60;;;;;;5072539;28;20058;-72
2021/04/23 02:00:09;;;;;;;18.02;4.60;;;4.90;79.60;;;;;;5070714;28;20024;-71
2021/04/23 02:02:35;;;;;;;16.27;5.75;;;4.90;79.80;;;;;;5072115;28;20457;-72
2021/04/23 02:05:00;;;;;;;16.85;5.07;;;4.90;79.80;;;;;;5072154;28;20027;-72
2021/04/23 02:07:26;;;;;;;18.45;4.95;;;4.90;79.90;;;;;;5070817;28;20461;-71
2021/04/23 02:09:53;;;;;;;16.90;5.38;;;4.80;79.90;;;;;;5072448;28;20449;-72
2021/04/23 02:12:19;;;;;;;15.27;4.68;;;4.80;79.90;;;;;;5070825;28;20024;-72
2021/04/23 02:14:45;;;;;;;12.38;5.03;;;4.90;80.00;;;;;;5070939;28;20059;-71
2021/04/23 02:17:10;;;;;;;15.85;4.60;;;4.80;80.00;;;;;;5071804;28;20024;-71
2021/04/23 02:19:36;;;;;;;13.95;4.68;;;4.80;80.10;;;;;;5070773;28;20123;-72
2021/04/23 02:22:02;;;;;;;14.32;5.10;;;4.80;80.00;;;;;;5071836;28;20021;-71
2021/04/23 02:24:28;;;;;;;12.23;4.72;;;4.80;80.30;;;;;;5071833;28;20020;-71
2021/04/23 02:26:54;;;;;;;16.60;5.18;;;4.80;80.80;;;;;;5070627;28;20028;-72
2021/04/23 02:29:20;;;;;;;21.23;5.20;;;4.80;80.20;;;;;;5071913;28;20029;-73
2021/04/23 02:31:50;;;;;;;13.38;4.45;;;4.70;80.20;;;;;;5067837;28;20028;-72
2021/04/23 02:34:17;;;;;;;13.90;5.05;;;4.70;80.30;;;;;;5073724;28;20025;-73
2021/04/23 02:36:43;;;;;;;13.73;4.55;;;4.70;80.30;;;;;;5072000;28;20024;-72
2021/04/23 02:39:12;;;;;;;15.57;4.90;;;4.70;80.40;;;;;;5071394;28;20318;-71
2021/04/23 02:41:40;;;;;;;13.10;4.40;;;4.70;80.60;;;;;;5073295;28;20066;-72
2021/04/23 02:44:06;;;;;;;15.40;4.80;;;4.70;80.70;;;;;;5075791;28;20039;-72
2021/04/23 02:46:33;;;;;;;13.95;5.25;;;4.70;80.70;;;;;;5074673;28;20368;-72
2021/04/23 02:48:58;;;;;;;11.57;3.95;;;4.70;80.70;;;;;;5075706;28;20086;-73
2021/04/23 02:51:28;;;;;;;15.52;4.30;;;4.60;80.80;;;;;;5076144;28;20025;-73
2021/04/23 02:53:55;;;;;;;17.35;5.00;;;4.60;80.80;;;;;;5075623;28;20032;-73
2021/04/23 02:56:22;;;;;;;15.88;4.40;;;4.60;80.80;;;;;;5074277;28;20426;-73
2021/04/23 02:58:48;;;;;;;26.25;4.80;;;4.60;80.80;;;;;;5075432;28;20021;-72
2021/04/23 03:01:18;;;;;;;20.15;5.07;;;4.60;80.90;;;;;;5074047;28;20112;-71
2021/04/23 03:03:44;;;;;;;17.40;4.53;;;4.50;81.00;;;;;;5075388;28;20019;-72
2021/04/23 03:06:10;;;;;;;17.73;5.72;;;4.50;81.10;;;;;;5073884;28;20021;-72
2021/04/23 03:08:36;;;;;;;13.50;4.47;;;4.50;81.30;;;;;;5075100;28;20442;-72
2021/04/23 03:11:15;;;;;;;15.57;5.50;;;4.50;81.10;;;;;;5073931;28;20179;-72
2021/04/23 03:13:48;;;;;;;16.75;5.40;;;4.40;81.10;;;;;;5075512;28;20039;-72
2021/04/23 03:16:13;;;;;;;24.95;6.25;;;4.40;81.20;;;;;;5075147;28;20470;-72
2021/04/23 03:18:41;;;;;;;14.90;5.03;;;4.30;81.40;;;;;;5075268;28;20020;-73
2021/04/23 03:21:08;;;;;;;16.13;6.38;;;4.30;81.80;;;;;;5074613;28;20609;-72
2021/04/23 03:23:34;;;;;;;16.17;6.88;;;4.30;81.80;;;;;;5073775;28;20373;-72
2021/04/23 03:26:03;;;;;;;21.02;6.35;;;4.30;82.10;;;;;;5075157;28;20132;-72
2021/04/23 03:28:29;;;;;;;20.17;6.97;;;4.20;82.20;;;;;;5073964;28;20126;-72
2021/04/23 03:30:55;;;;;;;19.38;6.85;;;4.20;82.30;;;;;;5075164;28;20080;-72
2021/04/23 03:33:22;;;;;;;25.50;7.22;;;4.20;82.30;;;;;;5094538;28;20103;-71
2021/04/23 03:35:50;;;;;;;18.52;6.75;;;4.20;82.50;;;;;;5093951;28;20035;-71
2021/04/23 03:38:17;;;;;;;19.10;7.07;;;4.20;82.50;;;;;;5093784;28;20061;-71
2021/04/23 03:40:43;;;;;;;15.18;6.10;;;4.20;82.50;;;;;;5095253;28;20028;-72
2021/04/23 03:43:09;;;;;;;26.30;6.45;;;4.20;82.50;;;;;;5093595;28;20012;-72
2021/04/23 03:45:36;;;;;;;13.93;6.47;;;4.20;82.60;;;;;;5093556;28;20023;-72
2021/04/23 03:48:04;;;;;;;16.23;6.40;;;4.10;82.60;;;;;;5093804;28;20016;-71
2021/04/23 03:50:31;;;;;;;19.67;7.50;;;4.10;82.80;;;;;;5095068;28;20024;-72
2021/04/23 03:52:59;;;;;;;21.20;7.78;;;4.10;83.00;;;;;;5094253;28;20020;-72
2021/04/23 03:55:32;;;;;;;15.75;7.50;;;4.10;83.10;;;;;;5093333;28;20046;-72
2021/04/23 03:57:59;;;;;;;27.17;8.00;;;4.10;83.20;;;;;;5093587;28;20016;-72
2021/04/23 04:00:38;;;;;;;22.17;7.82;;;4.10;83.30;;;;;;5093369;28;20353;-72
2021/04/23 04:03:05;;;;;;;20.45;6.72;;;4.10;83.60;;;;;;5093257;28;20027;-72
2021/04/23 04:05:30;;;;;;;18.42;7.03;;;4.10;83.60;;;;;;5093504;28;20016;-72
2021/04/23 04:07:56;;;;;;;21.00;7.60;;;4.00;83.60;;;;;;5092987;28;20047;-73
2021/04/23 04:10:22;;;;;;;19.27;7.25;;;4.10;84.10;;;;;;5094425;28;20085;-73
2021/04/23 04:12:48;;;;;;;18.65;7.70;;;4.00;84.20;;;;;;5094622;28;20016;-73
2021/04/23 04:15:15;;;;;;;18.10;7.20;;;4.00;84.00;;;;;;5092877;28;20440;-72
2021/04/23 04:17:41;;;;;;;20.98;7.72;;;4.10;84.20;;;;;;5093199;28;20403;-72
2021/04/23 04:20:10;;;;;;;20.48;8.73;;;4.10;84.40;;;;;;5093819;28;20485;-73
2021/04/23 04:22:36;;;;;;;20.10;8.70;;;4.10;84.30;;;;;;5094628;28;20020;-71
2021/04/23 04:25:04;;;;;;;21.95;8.30;;;4.20;84.50;;;;;;5092917;28;20084;-72
2021/04/23 04:27:29;;;;;;;18.35;6.85;;;4.20;85.00;;;;;;5094114;28;20016;-71
2021/04/23 04:29:55;;;;;;;21.50;8.60;;;4.30;85.40;;;;;;5094375;28;20020;-72
2021/04/23 04:32:20;;;;;;;17.88;8.13;;;4.30;85.50;;;;;;5093527;28;20027;-72
2021/04/23 04:34:46;;;;;;;23.17;8.32;;;4.40;85.30;;;;;;5092952;28;20445;-72
2021/04/23 04:37:12;;;;;;;18.13;7.00;;;4.40;85.30;;;;;;5092466;28;20112;-72
2021/04/23 04:39:39;;;;;;;23.92;8.27;;;4.60;85.30;;;;;;5092686;28;20023;-71
2021/04/23 04:42:05;;;;;;;17.65;8.48;;;4.60;85.10;;;;;;5092753;28;20055;-71
2021/04/23 04:44:31;;;;;;;21.17;7.10;;;4.70;84.90;;;;;;5092600;28;20020;-72
2021/04/23 04:46:57;;;;;;;24.50;7.75;;;4.70;84.70;;;;;;5093703;28;20026;-72
2021/04/23 04:49:22;;;;;;;24.13;8.57;;;4.80;84.70;;;;;;5093309;28;20020;-71
2021/04/23 04:51:48;;;;;;;22.23;7.68;;;4.80;84.50;;;;;;5092292;28;20016;-71
2021/04/23 04:54:14;;;;;;;19.25;7.72;;;4.90;84.30;;;;;;5093270;28;20460;-72
2021/04/23 04:56:39;;;;;;;20.05;6.72;;;5.00;84.60;;;;;;5092302;28;20106;-72
2021/04/23 04:59:05;;;;;;;18.50;7.30;;;5.00;84.00;;;;;;5093685;28;20055;-72
2021/04/23 05:01:30;;;;;;;20.35;8.13;;;5.10;83.50;;;;;;5091997;28;20020;-72
2021/04/23 05:03:56;;;;;;;16.13;7.25;;;5.10;83.40;;;;;;5093353;28;20129;-72
2021/04/23 05:06:22;;;;;;;19.15;8.18;;;5.20;83.20;;;;;;5092933;28;20024;-72
2021/04/23 05:08:47;;;;;;;25.42;9.10;;;5.20;83.30;;;;;;5091675;28;20477;-71
2021/04/23 05:11:13;;;;;;;21.25;7.72;;;5.20;83.00;;;;;;5092951;28;20345;-71
2021/04/23 05:13:38;;;;;;;18.05;8.40;;;5.30;83.00;;;;;;5092113;28;20016;-71
2021/04/23 05:16:04;;;;;;;21.92;8.23;;;5.30;82.90;;;;;;5093069;28;20020;-72
2021/04/23 05:18:30;;;;;;;16.63;8.15;;;5.30;82.70;;;;;;5093084;28;20391;-73
2021/04/23 05:20:56;;;;;;;22.73;7.93;;;5.40;82.70;;;;;;5092079;28;20069;-73
2021/04/23 05:23:22;;;;;;;16.83;7.38;;;5.40;82.70;;;;;;5091806;28;20028;-73
2021/04/23 05:25:47;;;;;;;18.45;8.65;;;5.40;82.40;;;;;;5093344;28;20492;-74
2021/04/23 05:28:13;;;;;;;20.33;8.13;;;5.50;82.30;;;;;;5091858;28;20012;-74
2021/04/23 05:30:39;;;;;;;21.42;7.63;;;5.60;82.30;;;;;;5092918;28;20091;-73
2021/04/23 05:33:07;;;;;;;23.15;8.55;;;5.60;83.00;;;;;;5091571;28;20466;-74
2021/04/23 05:35:33;;;;;;;19.05;8.85;;;5.70;82.50;;;;;;5091507;28;20028;-73
2021/04/23 05:37:59;;;;;;;20.75;8.45;;;5.70;82.20;;;;;;5093480;28;20024;-75
2021/04/23 05:40:38;;;;;;;23.08;7.60;;;5.80;82.30;;;;;;5091244;28;20028;-74
2021/04/23 05:43:05;;;;;;;20.45;8.27;;;5.90;82.20;;;;;;5092953;28;20099;-74
2021/04/23 05:45:31;;;;;;;18.40;7.35;;;6.00;82.20;;;;;;5091270;28;20407;-75
2021/04/23 05:47:58;;;;;;;20.02;8.05;;;6.10;81.90;;;;;;5092837;28;20449;-74
2021/04/23 05:50:23;;;;;;;18.20;7.18;;;6.20;81.90;;;;;;5092410;28;20028;-74
2021/04/23 05:52:50;;;;;;;19.48;6.93;;;6.30;81.40;;;;;;5091385;28;20019;-74
2021/04/23 05:55:19;;;;;;;19.08;7.95;;;6.40;81.40;;;;;;5092312;28;20027;-73
2021/04/23 05:57:46;;;;;;;21.50;7.22;;;6.50;81.30;;;;;;5091505;28;20024;-74
2021/04/23 06:00:18;;;;;;;23.75;7.18;;;6.60;80.80;;;;;;5092511;28;20117;-74
2021/04/23 06:02:44;;;;;;;18.65;7.30;;;6.70;80.50;;;;;;5091204;28;20456;-74
2021/04/23 06:05:10;;;;;;;23.98;7.60;;;6.70;79.80;;;;;;5091202;28;20020;-74
2021/04/23 06:07:36;;;;;;;13.80;6.53;;;6.80;79.40;;;;;;5090535;28;20040;-73
2021/04/23 06:10:05;;;;;;;25.63;6.80;;;6.90;79.30;;;;;;5091346;28;20020;-72
2021/04/23 06:12:31;;;;;;;18.35;6.10;;;7.00;79.00;;;;;;5092229;28;20068;-74
2021/04/23 06:14:57;;;;;;;26.70;7.18;;;7.10;78.70;;;;;;5092367;28;20039;-75
2021/04/23 06:17:24;;;;;;;20.30;7.15;;;7.20;78.10;;;;;;5091391;28;20410;-73
2021/04/23 06:19:49;;;;;;;17.83;6.95;;;7.30;77.80;;;;;;5090599;28;20035;-74
2021/04/23 06:22:15;;;;;;;21.13;7.53;;;7.40;78.10;;;;;;5091769;28;20083;-73
2021/04/23 06:24:41;;;;;;;25.48;6.75;;;7.50;77.70;;;;;;5091962;28;20023;-73
2021/04/23 06:27:07;;;;;;;21.38;7.50;;;7.60;77.00;;;;;;5092386;28;20024;-73
2021/04/23 06:29:33;;;;;;;14.07;5.47;;;7.70;76.50;;;;;;5092150;28;20110;-73
2021/04/23 06:31:59;;;;;;;15.85;5.47;;;7.80;76.00;;;;;;5092346;28;20024;-73
2021/04/23 06:34:24;;;;;;;14.52;5.63;;;7.80;76.10;;;;;;5091966;28;20012;-73
2021/04/23 06:36:50;;;;;;;25.83;6.15;;;7.90;75.60;;;;;;5091809;28;20024;-74
2021/04/23 06:39:18;;;;;;;18.67;4.38;;;8.00;74.80;;;;;;5083028;28;20377;-74
2021/04/23 06:41:47;;;;;;;15.98;5.85;;;8.00;74.20;;;;;;5080207;28;20379;-74
2021/04/23 06:44:15;;;;;;;19.23;4.78;;;8.10;74.50;;;;;;5078932;28;20021;-75
2021/04/23 06:46:42;;;;;;;14.48;4.88;;;8.20;73.90;;;;;;5079612;28;20013;-73
2021/04/23 06:49:07;;;;;;;19.23;5.15;;;8.30;73.50;;;;;;5092025;28;20027;-74
2021/04/23 06:51:34;;;;;;;12.60;4.22;;;8.30;72.90;;;;;;5091886;28;20108;-73
2021/04/23 06:54:00;;;;;;;15.23;3.80;;;8.40;72.00;;;;;;5090805;28;20062;-73
2021/04/23 06:56:26;;;;;;;21.65;6.03;;;8.50;71.90;;;;;;5090647;28;20024;-74
2021/04/23 06:58:51;;;;;;;18.95;5.03;;;8.50;71.60;;;;;;5091786;28;20024;-73
2021/04/23 07:01:25;;;;;;;14.57;4.40;;;8.60;71.90;;;;;;5090428;28;20042;-75
2021/04/23 07:03:51;;;;;;;14.82;4.43;;;8.70;71.50;;;;;;5090266;28;20024;-73
2021/04/23 07:06:16;;;;;;;23.55;4.90;;;8.80;71.40;;;;;;5088159;28;20424;-73
2021/04/23 07:08:42;;;;;;;20.10;4.60;;;9.00;70.30;;;;;;5090386;28;20043;-72
2021/04/23 07:11:08;;;;;;;12.23;3.95;;;9.10;69.20;;;;;;5090420;28;20024;-73
2021/04/23 07:13:34;;;;;;;16.02;3.90;;;9.20;69.00;;;;;;5090210;28;20113;-73
2021/04/23 07:16:00;;;;;;;16.02;4.57;;;9.20;68.60;;;;;;5090585;28;20012;-74
2021/04/23 07:18:28;;;;;;;15.02;3.95;;;9.30;68.40;;;;;;5091367;28;20031;-73
2021/04/23 07:20:55;;;;;;;11.07;4.25;;;9.30;69.00;;;;;;5090469;28;20103;-74
2021/04/23 07:23:20;;;;;;;13.32;4.15;;;9.40;69.90;;;;;;5091153;28;20023;-74
2021/04/23 07:25:47;;;;;;;14.80;3.20;;;9.40;70.00;;;;;;5091510;28;20020;-74
2021/04/23 07:28:12;;;;;;;15.98;3.28;;;9.50;68.90;;;;;;5090453;28;20016;-75
2021/04/23 07:30:39;;;;;;;14.98;4.38;;;9.40;67.90;;;;;;5093730;28;20484;-74
2021/04/23 07:33:09;;;;;;;10.65;3.08;;;9.40;67.40;;;;;;5077762;28;20091;-74
2021/04/23 07:35:35;;;;;;;;;;;9.50;68.70;;;;;;5073946;28;20086;-73
2021/04/23 07:38:02;;;;;;;13.45;2.83;;;9.40;67.40;;;;;;5073313;28;20345;-74
2021/04/23 07:40:29;;;;;;;11.60;2.92;;;9.50;67.10;;;;;;5074191;28;20124;-74
2021/04/23 07:42:54;;;;;;;13.52;3.22;;;9.60;68.90;;;;;;5074543;28;20013;-74
2021/04/23 07:45:20;;;;;;;11.52;3.35;;;9.70;66.70;;;;;;5074264;28;20104;-74
2021/04/23 07:47:47;;;;;;;10.35;2.33;;;9.70;65.10;;;;;;5073447;28;20013;-73
2021/04/23 07:50:15;;;;;;;12.23;3.03;;;9.80;67.70;;;;;;5073281;28;20016;-73
2021/04/23 07:52:41;;;;;;;16.77;2.70;;;9.90;62.50;;;;;;5073227;28;20012;-74
2021/04/23 07:55:09;;;;;;;9.68;2.63;;;10.10;64.10;;;;;;5073309;28;20476;-73
2021/04/23 07:57:36;;;;;;;8.48;2.80;;;10.30;62.90;;;;;;5073099;28;20013;-73
2021/04/23 08:00:04;;;;;;;15.98;3.10;;;10.50;62.90;;;;;;5073305;28;20068;-73
2021/04/23 08:02:30;;;;;;;17.08;3.05;;;10.50;60.60;;;;;;5074359;28;20016;-74
2021/04/23 08:04:56;;;;;;;9.98;3.03;;;10.50;60.60;;;;;;5073172;28;20106;-74
2021/04/23 08:07:21;;;;;;;12.82;3.15;;;10.50;65.00;;;;;;5074043;28;20024;-73
2021/04/23 08:09:47;;;;;;;12.80;3.72;;;10.50;61.30;;;;;;5074579;28;20020;-73
2021/04/23 08:12:12;;;;;;;14.52;2.95;;;10.50;60.60;;;;;;5074359;28;20406;-73
2021/04/23 08:14:38;;;;;;;14.73;2.50;;;10.50;61.30;;;;;;5072756;28;20751;-73
2021/04/23 08:17:04;;;;;;;10.27;2.45;;;10.60;59.20;;;;;;5074031;28;20407;-73
2021/04/23 08:19:30;;;;;;;11.23;2.40;;;10.70;58.90;;;;;;5073694;28;20020;-73
2021/04/23 08:21:55;;;;;;;10.52;2.85;;;10.90;61.50;;;;;;5074285;28;20489;-73
2021/04/23 08:24:21;;;;;;;10.02;2.65;;;10.90;59.30;;;;;;5073527;28;20016;-73
2021/04/23 08:26:47;;;;;;;8.02;2.63;;;10.90;58.00;;;;;;5072917;28;20520;-73
2021/04/23 08:29:13;;;;;;;8.90;2.08;;;10.90;58.90;;;;;;5073839;28;20021;-73
2021/04/23 08:31:40;;;;;;;7.13;1.88;;;11.10;57.50;;;;;;5072320;28;20108;-73
2021/04/23 08:34:06;;;;;;;10.45;1.88;;;11.20;59.70;;;;;;5072693;28;20013;-73
2021/04/23 08:36:32;;;;;;;16.27;2.50;;;11.20;64.10;;;;;;5072362;28;20017;-73
2021/04/23 08:38:59;;;;;;;11.90;2.08;;;11.20;59.90;;;;;;5073932;28;20028;-74
2021/04/23 08:41:25;;;;;;;13.85;2.47;;;11.20;57.30;;;;;;5072067;28;20020;-73
2021/04/23 08:43:50;;;;;;;10.88;2.10;;;11.10;58.50;;;;;;5089396;28;20028;-73
2021/04/23 08:46:16;;;;;;;10.95;2.67;;;11.30;57.40;;;;;;5072422;28;20035;-74
2021/04/23 08:48:42;;;;;;;12.82;2.33;;;11.50;56.70;;;;;;5072274;28;20021;-74
2021/04/23 08:51:08;;;;;;;10.95;3.05;;;11.50;55.50;;;;;;5073463;28;20016;-74
2021/04/23 08:53:34;;;;;;;10.95;2.67;;;11.50;55.20;;;;;;5088619;28;20024;-74
2021/04/23 08:56:00;;;;;;;7.95;2.65;;;11.50;56.50;;;;;;5088864;28;20013;-74
2021/04/23 08:58:26;;;;;;;10.23;2.45;;;11.40;58.70;;;;;;5071976;28;20036;-75
2021/04/23 09:00:53;;;;;;;8.40;2.25;;;11.40;63.40;;;;;;5055490;28;20036;-73
2021/04/23 09:03:19;;;;;;;9.57;2.70;;;11.70;62.40;;;;;;5073446;28;20020;-74
2021/04/23 09:06:21;;;;;;;14.80;2.83;;;12.10;59.90;;;;;;5071866;28;20111;-73
2021/04/23 09:08:50;;;;;;;11.07;2.40;;;12.50;62.80;;;;;;5071986;28;20520;-74
2021/04/23 09:11:18;;;;;;;18.70;4.55;;;12.70;60.90;;;;;;5073700;28;20445;-73
2021/04/23 09:13:53;;;;;;;15.35;3.38;;;12.90;55.70;;;;;;5071740;28;20019;-73
2021/04/23 09:16:24;;;;;;;8.73;2.85;;;13.00;54.20;;;;;;5088681;28;20435;-74
2021/04/23 09:18:51;;;;;;;15.63;4.18;;;13.10;52.80;;;;;;5071923;28;20085;-72
2021/04/23 09:21:17;;;;;;;11.43;2.50;;;13.30;52.80;;;;;;5071683;28;20032;-74
2021/04/23 09:23:51;;;;;;;9.43;2.80;;;13.70;50.80;;;;;;5072741;28;20020;-73
2021/04/23 09:26:36;;;;;;;10.98;2.58;;;13.90;49.40;;;;;;5071638;28;20017;-73
2021/04/23 09:29:03;;;;;;;10.55;2.20;;;14.30;52.60;;;;;;5071661;28;20016;-74
2021/04/23 09:31:31;;;;;;;8.65;2.17;;;14.50;56.30;;;;;;5072408;28;20107;-74
2021/04/23 09:34:00;;;;;;;10.93;3.38;;;14.60;55.20;;;;;;5068625;28;20024;-73
2021/04/23 09:36:30;;;;;;;14.23;4.68;;;14.50;48.90;;;;;;5072320;28;20017;-73
2021/04/23 09:39:12;;;;;;;16.70;3.72;;;14.30;48.40;;;;;;5072701;28;20012;-72
2021/04/23 09:41:41;;;;;;;14.48;3.65;;;14.10;49.00;;;;;;5088006;28;20024;-73
2021/04/23 09:44:28;;;;;;;13.15;2.83;;;14.00;49.00;;;;;;5093078;28;20102;-72
2021/04/23 09:47:00;;;;;;;12.57;3.03;;;14.10;50.50;;;;;;5091702;28;20035;-73
2021/04/23 09:49:27;;;;;;;9.40;2.63;;;14.30;52.80;;;;;;5092798;28;20449;-73
2021/04/23 09:51:52;;;;;;;10.07;2.70;;;14.60;55.20;;;;;;5092169;28;20020;-72
2021/04/23 09:54:22;;;;;;;18.05;3.83;;;14.80;50.70;;;;;;5091404;28;20020;-71
2021/04/23 09:56:50;;;;;;;7.18;2.63;;;14.80;46.30;;;;;;5091296;28;20027;-73
2021/04/23 09:59:24;;;;;;;13.85;2.50;;;15.00;55.70;;;;;;5091338;28;20367;-73
2021/04/23 10:02:01;;;;;;;10.70;2.75;;;15.30;54.00;;;;;;5092472;28;20016;-73
2021/04/23 10:04:27;;;;;;;26.48;10.90;;;15.50;53.20;;;;;;5092470;28;20027;-72
2021/04/23 10:07:12;;;;;;;11.20;3.58;;;15.60;46.90;;;;;;5092430;28;20016;-74
2021/04/23 10:10:02;;;;;;;9.15;3.03;;;15.90;45.10;;;;;;5090942;28;20059;-73
2021/04/23 10:13:05;;;;;;;10.27;2.80;;;16.20;53.60;;;;;;5090666;28;20488;-73
2021/04/23 10:15:40;;;;;;;9.05;2.55;;;16.40;45.30;;;;;;5090453;28;20024;-72
2021/04/23 10:18:09;;;;;;;8.75;2.20;;;16.50;56.20;;;;;;5092545;28;20027;-73
2021/04/23 10:20:40;;;;;;;17.70;3.50;;;16.60;57.30;;;;;;5090553;28;20149;-73
2021/04/23 10:23:09;;;;;;;11.23;3.47;;;16.60;43.80;;;;;;5091786;28;20051;-73
2021/04/23 10:25:35;;;;;;;9.15;2.78;;;16.70;44.70;;;;;;5090453;28;20517;-73
2021/04/23 10:28:11;;;;;;;11.18;2.88;;;16.80;52.40;;;;;;5090920;28;20028;-72
2021/04/23 10:30:42;;;;;;;11.00;2.95;;;17.00;55.10;;;;;;5090498;28;20016;-72
2021/04/23 10:33:17;;;;;;;7.55;1.80;;;17.10;42.60;;;;;;5090606;28;20031;-73
2021/04/23 10:35:45;;;;;;;12.52;3.60;;;17.30;51.30;;;;;;5090721;28;20016;-74
2021/04/23 10:38:22;;;;;;;10.73;2.50;;;17.60;46.30;;;;;;5090913;28;20024;-74
2021/04/23 10:40:58;;;;;;;4.97;1.40;;;18.00;41.20;;;;;;5090481;28;20032;-73
2021/04/23 10:43:25;;;;;;;4.53;1.67;;;18.20;53.60;;;;;;5091860;28;20353;-72
2021/04/23 10:46:04;;;;;;;9.18;3.20;;;18.00;53.30;;;;;;5091609;28;20099;-72
2021/04/23 10:48:33;;;;;;;6.33;2.37;;;17.90;46.40;;;;;;5091689;28;20020;-72
2021/04/23 10:51:08;;;;;;;8.40;3.00;;;17.90;45.50;;;;;;5091850;28;20047;-72
2021/04/23 10:53:43;;;;;;;8.88;2.97;;;18.00;47.60;;;;;;5091595;28;20061;-73
2021/04/23 10:56:18;;;;;;;7.63;2.30;;;17.70;41.70;;;;;;5092131;28;20018;-72
2021/04/23 10:58:44;;;;;;;6.18;2.08;;;17.70;50.40;;;;;;5091511;28;20403;-73
2021/04/23 11:01:12;;;;;;;8.38;2.50;;;17.90;49.40;;;;;;5090637;28;20020;-72
2021/04/23 11:03:39;;;;;;;8.10;2.47;;;18.10;42.30;;;;;;5094349;28;20095;-74
2021/04/23 11:06:27;;;;;;;10.40;2.47;;;18.40;41.30;;;;;;5095773;28;20095;-73
2021/04/23 11:08:58;;;;;;;5.93;1.55;;;18.40;52.80;;;;;;5095864;28;20043;-72
2021/04/23 11:11:28;;;;;;;8.90;2.58;;;18.50;55.30;;;;;;5094537;28;20047;-72
2021/04/23 11:13:54;;;;;;;6.35;2.13;;;18.80;44.20;;;;;;5094298;28;20411;-71
2021/04/23 11:16:26;;;;;;;13.32;3.40;;;18.60;55.70;;;;;;5094193;28;20004;-72
2021/04/23 11:18:53;;;;;;;10.18;2.90;;;18.40;47.40;;;;;;5093899;28;20068;-72
2021/04/23 11:21:31;;;;;;;13.00;3.20;;;18.60;49.10;;;;;;5095430;28;20012;-71
2021/04/23 11:24:15;;;;;;;10.38;2.58;;;18.60;41.30;;;;;;5095357;28;20020;-72
2021/04/23 11:27:01;;;;;;;8.77;2.50;;;18.80;40.10;;;;;;5095119;28;20043;-72
2021/04/23 11:29:28;;;;;;;10.32;2.75;;;19.00;38.90;;;;;;5095439;28;20027;-73
2021/04/23 11:32:09;;;;;;;8.55;2.40;;;19.20;39.20;;;;;;5095383;28;20530;-73
2021/04/23 11:35:15;;;;;;;7.53;2.60;;;19.40;38.80;;;;;;5097085;28;20480;-73
2021/04/23 11:37:41;;;;;;;6.45;2.13;;;19.40;45.20;;;;;;5095526;28;20051;-72
2021/04/23 11:40:12;;;;;;;9.18;2.08;;;19.40;44.30;;;;;;5096904;28;20044;-72
2021/04/23 11:42:50;;;;;;;13.10;3.83;;;19.50;39.70;;;;;;5093853;28;20030;-72
2021/04/23 11:45:20;;;;;;;6.35;2.25;;;19.90;49.10;;;;;;5095037;28;20016;-72
2021/04/23 11:47:48;;;;;;;7.75;2.28;;;20.30;46.10;;;;;;5094858;28;20026;-72
2021/04/23 11:50:21;;;;;;;11.18;2.88;;;20.20;49.20;;;;;;5094877;28;20468;-73
2021/04/23 11:52:50;;;;;;;5.25;1.30;;;19.80;41.60;;;;;;5093507;28;20012;-73
2021/04/23 11:55:19;;;;;;;5.95;1.67;;;19.40;55.90;;;;;;5094840;28;20016;-72
2021/04/23 11:57:46;;;;;;;8.93;2.92;;;18.80;49.40;;;;;;5094591;28;20031;-72
2021/04/23 12:00:14;;;;;;;7.60;2.28;;;19.00;43.30;;;;;;5093386;28;20020;-73
2021/04/23 12:02:44;;;;;;;6.70;2.00;;;19.30;39.20;;;;;;5093138;28;20059;-73
2021/04/23 12:05:40;;;;;;;9.60;2.17;;;19.70;38.50;;;;;;5093264;28;20449;-74
2021/04/23 12:08:14;;;;;;;7.28;1.60;;;20.20;40.90;;;;;;5092162;28;20064;-74
2021/04/23 12:10:50;;;;;;;5.38;1.48;;;20.50;51.70;;;;;;5094316;28;20100;-73
2021/04/23 12:13:21;;;;;;;5.40;1.63;;;20.50;51.30;;;;;;5094325;28;20449;-73
2021/04/23 12:15:49;;;;;;;8.48;2.70;;;20.50;50.60;;;;;;5093250;28;20016;-73
2021/04/23 12:18:15;;;;;;;4.97;1.63;;;20.50;48.90;;;;;;5094642;28;20035;-70
2021/04/23 12:20:42;;;;;;;9.57;2.55;;;20.60;48.80;;;;;;5094314;28;20028;-73
2021/04/23 12:23:13;;;;;;;5.35;2.53;;;20.70;46.50;;;;;;5094413;28;20103;-72
2021/04/23 12:25:50;;;;;;;8.18;2.42;;;20.80;48.00;;;;;;5092963;28;20460;-71
2021/04/23 12:28:19;;;;;;;7.95;3.05;;;20.70;33.40;;;;;;5093228;28;20022;-72
2021/04/23 12:30:47;;;;;;;8.45;2.22;;;20.90;39.30;;;;;;5093779;28;20070;-70
2021/04/23 12:33:12;;;;;;;9.82;3.30;;;21.10;49.50;;;;;;5094126;28;20095;-73
2021/04/23 12:35:44;;;;;;;7.93;2.65;;;21.30;40.20;;;;;;5092685;28;20099;-72
2021/04/23 12:38:12;;;;;;;9.65;2.55;;;21.60;42.90;;;;;;5094173;28;20016;-72
2021/04/23 12:40:44;;;;;;;4.68;1.90;;;21.70;47.70;;;;;;5093809;28;20659;-72
2021/04/23 12:43:21;;;;;;;6.72;1.52;;;21.60;43.30;;;;;;5092800;28;20062;-72
2021/04/23 12:45:53;;;;;;;8.38;2.25;;;21.70;42.50;;;;;;5093840;28;20016;-73
2021/04/23 12:48:21;;;;;;;4.93;1.38;;;21.80;34.70;;;;;;5093620;28;20418;-73
2021/04/23 12:50:49;;;;;;;5.30;2.13;;;21.90;48.70;;;;;;5094017;28;20032;-73
2021/04/23 12:53:17;;;;;;;4.32;1.17;;;22.00;48.50;;;;;;5094048;28;20020;-73